createdAt,value
2018-05-07T00:00:33.812Z,1001.93
2018-05-07T00:01:43.891Z,1001.97
2018-05-07T00:02:53.720Z,1001.94
2018-05-07T00:04:03.805Z,1001.91
2018-05-07T00:05:14.063Z,1001.91
2018-05-07T00:06:24.144Z,1001.89
2018-05-07T00:07:34.288Z,1001.9
2018-05-07T00:08:43.601Z,1001.89
2018-05-07T00:09:53.696Z,1001.86
2018-05-07T00:11:03.878Z,1001.86
2018-05-07T00:12:13.717Z,1001.8
2018-05-07T00:13:23.848Z,1001.82
2018-05-07T00:14:33.931Z,1001.8
2018-05-07T00:15:44.067Z,1001.83
2018-05-07T00:16:54.320Z,1001.83
2018-05-07T00:18:04.136Z,1001.83
2018-05-07T00:19:13.936Z,1001.81
2018-05-07T00:20:24.059Z,1001.79
2018-05-07T00:21:34.186Z,1001.83
2018-05-07T00:22:44.257Z,1001.84
2018-05-07T00:23:54.332Z,1001.84
2018-05-07T00:25:03.889Z,1001.87
2018-05-07T00:26:13.987Z,1001.91
2018-05-07T00:27:24.072Z,1001.89
2018-05-07T00:28:34.205Z,1001.9
2018-05-07T00:29:44.348Z,1001.91
2018-05-07T00:30:54.412Z,1001.87
2018-05-07T00:32:04.557Z,1001.89
2018-05-07T00:33:14.811Z,1001.91
2018-05-07T00:34:24.669Z,1001.91
2018-05-07T00:35:34.490Z,1001.87
2018-05-07T00:36:44.557Z,1001.88
2018-05-07T00:37:54.396Z,1001.92
2018-05-07T00:39:04.480Z,1001.89
2018-05-07T00:40:14.555Z,1001.85
2018-05-07T00:41:24.628Z,1001.89
2018-05-07T00:42:34.699Z,1001.89
2018-05-07T00:43:44.770Z,1001.84
2018-05-07T00:44:54.571Z,1001.82
2018-05-07T00:46:04.651Z,1001.83
2018-05-07T00:47:14.730Z,1001.85
2018-05-07T00:48:24.813Z,1001.83
2018-05-07T00:49:34.900Z,1001.77
2018-05-07T00:50:44.802Z,1001.79
2018-05-07T00:51:54.865Z,1001.84
2018-05-07T00:53:04.955Z,1001.78
2018-05-07T00:54:14.778Z,1001.81
2018-05-07T00:55:24.864Z,1001.78
2018-05-07T00:56:34.936Z,1001.78
2018-05-07T00:57:44.789Z,1001.81
2018-05-07T00:58:54.875Z,1001.75
2018-05-07T01:00:04.964Z,1001.79
2018-05-07T01:01:15.046Z,1001.78
2018-05-07T01:02:25.106Z,1001.78
2018-05-07T01:03:35.221Z,1001.74
2018-05-07T01:04:45.289Z,1001.75
2018-05-07T01:05:54.831Z,1001.79
2018-05-07T01:07:04.914Z,1001.78
2018-05-07T01:08:14.725Z,1001.79
2018-05-07T01:09:24.787Z,1001.82
2018-05-07T01:10:34.864Z,1001.78
2018-05-07T01:11:44.700Z,1001.8
2018-05-07T01:12:54.511Z,1001.79
2018-05-07T01:14:04.608Z,1001.77
2018-05-07T01:15:14.693Z,1001.82
2018-05-07T01:16:24.770Z,1001.83
2018-05-07T01:17:34.853Z,1001.84
2018-05-07T01:18:44.653Z,1001.86
2018-05-07T01:19:54.701Z,1001.88
2018-05-07T01:21:04.783Z,1001.91
2018-05-07T01:22:14.588Z,1001.95
2018-05-07T01:23:24.379Z,1001.92
2018-05-07T01:24:34.463Z,1001.95
2018-05-07T01:25:43.740Z,1001.9
2018-05-07T01:26:53.556Z,1001.93
2018-05-07T01:28:03.638Z,1001.91
2018-05-07T01:29:13.705Z,1001.9
2018-05-07T01:30:23.517Z,1001.9
2018-05-07T01:31:33.325Z,1001.85
2018-05-07T01:32:43.406Z,1001.87
2018-05-07T01:33:53.472Z,1001.88
2018-05-07T01:35:03.550Z,1001.86
2018-05-07T01:36:13.345Z,1001.87
2018-05-07T01:37:22.624Z,1001.87
2018-05-07T01:38:32.699Z,1001.87
2018-05-07T01:39:42.509Z,1001.88
2018-05-07T01:40:52.576Z,1001.87
2018-05-07T01:42:02.121Z,1001.89
2018-05-07T01:43:11.923Z,1001.9
2018-05-07T01:44:22.061Z,1001.89
2018-05-07T01:45:32.140Z,1001.89
2018-05-07T01:46:41.947Z,1001.89
2018-05-07T01:47:52.017Z,1001.9
2018-05-07T01:49:01.838Z,1001.89
2018-05-07T01:50:11.907Z,1001.87
2018-05-07T01:51:21.982Z,1001.9
2018-05-07T01:52:32.035Z,1001.9
2018-05-07T01:53:42.210Z,1001.91
2018-05-07T01:54:52.027Z,1001.89
2018-05-07T01:56:02.105Z,1001.88
2018-05-07T01:57:12.171Z,1001.93
2018-05-07T01:58:22.233Z,1001.9
2018-05-07T01:59:32.044Z,1001.95
2018-05-07T02:00:42.112Z,1001.95
2018-05-07T02:01:51.984Z,1001.91
2018-05-07T02:03:02.056Z,1001.96
2018-05-07T02:04:12.131Z,1001.91
2018-05-07T02:05:22.225Z,1001.92
2018-05-07T02:06:32.290Z,1001.91
2018-05-07T02:07:42.357Z,1001.94
2018-05-07T02:08:52.431Z,1001.92
2018-05-07T02:10:01.986Z,1001.96
2018-05-07T02:11:11.802Z,1001.97
2018-05-07T02:12:21.637Z,1002
2018-05-07T02:13:31.714Z,1001.98
2018-05-07T02:14:41.786Z,1001.96
2018-05-07T02:15:51.328Z,1001.99
2018-05-07T02:17:01.392Z,1001.98
2018-05-07T02:18:11.467Z,1001.99
2018-05-07T02:19:21.061Z,1002
2018-05-07T02:20:31.116Z,1002.01
2018-05-07T02:21:40.917Z,1001.95
2018-05-07T02:22:50.979Z,1001.91
2018-05-07T02:24:00.782Z,1001.88
2018-05-07T02:25:10.905Z,1001.87
2018-05-07T02:26:20.983Z,1001.89
2018-05-07T02:27:30.779Z,1001.86
2018-05-07T02:28:40.608Z,1001.81
2018-05-07T02:29:50.685Z,1001.85
2018-05-07T02:31:00.772Z,1001.85
2018-05-07T02:32:10.840Z,1001.83
2018-05-07T02:33:20.924Z,1001.86
2018-05-07T02:34:31.019Z,1001.79
2018-05-07T02:35:41.129Z,1001.83
2018-05-07T02:36:51.262Z,1001.8
2018-05-07T02:38:01.075Z,1001.81
2018-05-07T02:39:11.138Z,1001.85
2018-05-07T02:40:21.218Z,1001.83
2018-05-07T02:41:31.310Z,1001.8
2018-05-07T02:42:41.434Z,1001.82
2018-05-07T02:43:51.504Z,1001.82
2018-05-07T02:45:01.601Z,1001.83
2018-05-07T02:46:11.747Z,1001.87
2018-05-07T02:47:21.825Z,1001.88
2018-05-07T02:48:31.695Z,1001.91
2018-05-07T02:49:41.770Z,1001.84
2018-05-07T02:50:51.590Z,1001.86
2018-05-07T02:52:01.402Z,1001.86
2018-05-07T02:53:11.489Z,1001.81
2018-05-07T02:54:21.611Z,1001.82
2018-05-07T02:55:31.434Z,1001.82
2018-05-07T02:56:41.251Z,1001.82
2018-05-07T02:57:51.321Z,1001.85
2018-05-07T02:59:00.868Z,1001.88
2018-05-07T03:00:10.955Z,1001.86
2018-05-07T03:01:21.020Z,1001.8
2018-05-07T03:02:31.100Z,1001.81
2018-05-07T03:33:43.072Z,1001.89
2018-05-07T03:34:53.122Z,1001.87
2018-05-07T03:36:03.168Z,1001.93
2018-05-07T03:37:13.258Z,1001.94
2018-05-07T03:38:23.036Z,1001.97
2018-05-07T03:39:32.848Z,1001.94
2018-05-07T03:40:42.955Z,1001.95
2018-05-07T03:41:52.752Z,1001.97
2018-05-07T03:43:02.558Z,1001.97
2018-05-07T03:44:12.618Z,1001.95
2018-05-07T03:45:22.743Z,1001.93
2018-05-07T03:46:32.827Z,1001.97
2018-05-07T03:47:42.889Z,1001.88
2018-05-07T03:48:52.967Z,1001.87
2018-05-07T03:50:02.783Z,1001.86
2018-05-07T03:51:12.889Z,1001.83
2018-05-07T03:52:22.960Z,1001.84
2018-05-07T03:53:33.083Z,1001.85
2018-05-07T03:54:43.152Z,1001.83
2018-05-07T03:55:53.240Z,1001.86
2018-05-07T03:57:03.298Z,1001.87
2018-05-07T03:58:13.395Z,1001.83
2018-05-07T03:59:22.951Z,1001.85
2018-05-07T04:00:33.026Z,1001.86
2018-05-07T04:01:43.090Z,1001.83
2018-05-07T04:02:52.634Z,1001.86
2018-05-07T04:04:02.700Z,1001.85
2018-05-07T04:05:12.779Z,1001.81
2018-05-07T04:06:22.831Z,1001.84
2018-05-07T04:07:32.900Z,1001.84
2018-05-07T04:08:42.960Z,1001.84
2018-05-07T04:09:53.037Z,1001.87
2018-05-07T04:11:02.852Z,1001.86
2018-05-07T04:12:12.660Z,1001.9
2018-05-07T04:13:22.731Z,1001.88
2018-05-07T04:14:32.807Z,1001.91
2018-05-07T04:15:42.894Z,1001.93
2018-05-07T04:16:52.967Z,1001.92
2018-05-07T04:18:03.033Z,1001.94
2018-05-07T04:19:12.842Z,1001.98
2018-05-07T04:20:22.923Z,1001.99
2018-05-07T04:21:32.463Z,1001.99
2018-05-07T04:22:42.521Z,1002.12
2018-05-07T04:23:52.584Z,1002.11
2018-05-07T04:25:02.660Z,1002.09
2018-05-07T04:26:12.735Z,1002.05
2018-05-07T04:27:22.824Z,1002.06
2018-05-07T04:28:32.915Z,1002.11
2018-05-07T04:29:42.472Z,1002.13
2018-05-07T04:30:52.539Z,1002.06
2018-05-07T04:32:02.402Z,1002.05
2018-05-07T04:33:12.465Z,1002.06
2018-05-07T04:34:22.028Z,1002.07
2018-05-07T04:35:31.826Z,1002.1
2018-05-07T04:36:41.896Z,1002.2
2018-05-07T04:37:51.964Z,1002.19
2018-05-07T04:39:02.040Z,1002.3
2018-05-07T04:40:12.103Z,1002.45
2018-05-07T04:41:22.165Z,1002.52
2018-05-07T04:42:32.322Z,1002.62
2018-05-07T04:43:42.393Z,1002.64
2018-05-07T04:44:52.194Z,1002.64
2018-05-07T04:46:01.992Z,1002.54
2018-05-07T04:47:12.058Z,1002.5
2018-05-07T04:48:22.131Z,1002.46
2018-05-07T04:49:32.200Z,1002.43
2018-05-07T04:50:42.270Z,1002.42
2018-05-07T04:51:52.332Z,1002.41
2018-05-07T04:53:02.136Z,1002.41
2018-05-07T04:54:12.222Z,1002.4
2018-05-07T04:55:22.308Z,1002.39
2018-05-07T04:56:32.397Z,1002.36
2018-05-07T04:57:42.468Z,1002.37
2018-05-07T04:58:52.533Z,1002.44
2018-05-07T05:00:02.601Z,1002.49
2018-05-07T05:01:12.674Z,1002.64
2018-05-07T05:02:22.494Z,1002.72
2018-05-07T05:03:32.567Z,1002.6
2018-05-07T05:04:42.644Z,1002.58
2018-05-07T05:05:52.713Z,1002.63
2018-05-07T05:07:02.856Z,1002.67
2018-05-07T05:08:12.976Z,1002.64
2018-05-07T05:09:23.118Z,1002.77
2018-05-07T05:10:33.179Z,1002.84
2018-05-07T05:11:42.994Z,1002.82
2018-05-07T05:12:52.804Z,1002.77
2018-05-07T05:14:02.878Z,1002.76
2018-05-07T05:15:12.946Z,1002.76
2018-05-07T05:16:22.754Z,1002.75
2018-05-07T05:17:32.572Z,1002.71
2018-05-07T05:18:42.381Z,1002.77
2018-05-07T05:19:52.458Z,1002.74
2018-05-07T05:21:02.589Z,1002.71
2018-05-07T05:22:12.828Z,1002.64
2018-05-07T05:23:22.632Z,1002.64
2018-05-07T05:24:32.477Z,1002.71
2018-05-07T05:25:42.586Z,1002.77
2018-05-07T05:26:52.662Z,1002.76
2018-05-07T05:28:02.474Z,1002.85
2018-05-07T05:29:12.580Z,1002.79
2018-05-07T05:30:22.457Z,1002.77
2018-05-07T05:31:32.538Z,1002.77
2018-05-07T05:32:42.085Z,1002.79
2018-05-07T05:33:52.163Z,1002.74
2018-05-07T05:35:01.977Z,1002.72
2018-05-07T05:36:12.043Z,1002.77
2018-05-07T05:37:22.150Z,1002.81
2018-05-07T05:38:32.107Z,1002.73
2018-05-07T05:39:42.246Z,1002.65
2018-05-07T05:40:52.315Z,1002.69
2018-05-07T05:42:02.375Z,1002.68
2018-05-07T05:43:12.435Z,1002.71
2018-05-07T05:44:21.976Z,1002.74
2018-05-07T05:45:31.535Z,1002.65
2018-05-07T05:46:41.613Z,1002.68
2018-05-07T05:47:51.439Z,1002.7
2018-05-07T05:49:01.520Z,1002.66
2018-05-07T05:50:11.769Z,1002.7
2018-05-07T05:51:21.592Z,1002.71
2018-05-07T05:52:31.146Z,1002.62
2018-05-07T05:53:41.245Z,1002.61
2018-05-07T05:54:51.333Z,1002.56
2018-05-07T05:56:01.183Z,1002.4
2018-05-07T05:57:11.381Z,1002.19
2018-05-07T05:58:21.452Z,1002.2
2018-05-07T05:59:31.524Z,1002.25
2018-05-07T06:00:41.690Z,1002.19
2018-05-07T06:01:51.765Z,1002.25
2018-05-07T06:03:01.857Z,1002.22
2018-05-07T06:04:11.933Z,1002.18
2018-05-07T06:05:22.004Z,1002.13
2018-05-07T06:06:32.076Z,1002.13
2018-05-07T06:07:42.165Z,1002.1
2018-05-07T06:08:52.263Z,1002.17
2018-05-07T06:10:02.222Z,1002.17
2018-05-07T06:11:12.306Z,1002.21
2018-05-07T06:12:22.121Z,1002.18
2018-05-07T06:13:32.210Z,1002.16
2018-05-07T06:14:42.129Z,1002.16
2018-05-07T06:15:53.429Z,1002.15
2018-05-07T06:17:03.241Z,1002.18
2018-05-07T06:18:13.321Z,1002.16
2018-05-07T06:19:23.129Z,1002.18
2018-05-07T06:20:33.291Z,1002.17
2018-05-07T06:21:43.373Z,1002.17
2018-05-07T06:22:53.489Z,1002.19
2018-05-07T06:24:03.587Z,1002.16
2018-05-07T06:25:13.677Z,1002.22
2018-05-07T06:26:23.487Z,1002.19
2018-05-07T06:27:33.569Z,1002.15
2018-05-07T06:28:43.677Z,1002.22
2018-05-07T06:29:53.491Z,1002.25
2018-05-07T06:31:03.638Z,1002.23
2018-05-07T06:32:13.714Z,1002.27
2018-05-07T06:33:23.786Z,1002.28
2018-05-07T06:34:33.385Z,1002.33
2018-05-07T06:35:43.511Z,1002.31
2018-05-07T06:36:53.335Z,1002.26
2018-05-07T06:38:03.188Z,1002.29
2018-05-07T06:39:13.274Z,1002.22
2018-05-07T06:40:23.148Z,1002.19
2018-05-07T06:41:33.221Z,1002.18
2018-05-07T06:42:43.310Z,1002.15
2018-05-07T06:43:53.123Z,1002.18
2018-05-07T06:45:03.278Z,1002.17
2018-05-07T06:46:13.833Z,1002.17
2018-05-07T06:47:23.973Z,1002.16
2018-05-07T06:48:34.052Z,1002.13
2018-05-07T06:49:43.854Z,1002.14
2018-05-07T06:50:53.979Z,1002.11
2018-05-07T06:52:04.147Z,1002.1
2018-05-07T06:53:14.506Z,1002.1
2018-05-07T06:54:24.342Z,1002.04
2018-05-07T06:55:34.241Z,1002.06
2018-05-07T06:56:43.808Z,1002.06
2018-05-07T06:57:53.941Z,1002.04
2018-05-07T06:59:03.508Z,1002.03
2018-05-07T07:00:13.589Z,1002.04
2018-05-07T07:01:23.667Z,1001.98
2018-05-07T07:02:33.758Z,1002.01
2018-05-07T07:03:44.764Z,1001.98
2018-05-07T07:04:54.610Z,1001.95
2018-05-07T07:06:04.699Z,1001.99
2018-05-07T07:07:14.774Z,1001.95
2018-05-07T07:08:25.144Z,1001.95
2018-05-07T07:09:36.711Z,1002
2018-05-07T07:10:46.785Z,1001.95
2018-05-07T07:11:56.593Z,1001.97
2018-05-07T07:13:06.136Z,1001.97
2018-05-07T07:14:16.228Z,1001.97
2018-05-07T07:15:26.313Z,1001.95
2018-05-07T07:16:36.413Z,1001.97
2018-05-07T07:17:46.225Z,1001.94
2018-05-07T07:18:56.308Z,1001.95
2018-05-07T07:20:06.144Z,1001.96
2018-05-07T07:21:15.989Z,1001.94
2018-05-07T07:22:26.072Z,1001.96
2018-05-07T07:23:36.171Z,1001.99
2018-05-07T07:24:46.245Z,1001.94
2018-05-07T07:25:56.317Z,1001.99
2018-05-07T07:27:06.388Z,1002.03
2018-05-07T07:28:16.250Z,1001.96
2018-05-07T07:29:26.497Z,1002.01
2018-05-07T07:30:36.601Z,1002
2018-05-07T07:31:46.684Z,1002
2018-05-07T07:32:56.768Z,1002.03
2018-05-07T07:34:06.883Z,1002.02
2018-05-07T07:35:17.036Z,1002.05
2018-05-07T07:36:27.109Z,1002.03
2018-05-07T07:37:36.928Z,1002.02
2018-05-07T07:38:46.752Z,1001.99
2018-05-07T07:39:58.213Z,1001.99
2018-05-07T07:41:08.460Z,1002.01
2018-05-07T07:42:18.523Z,1001.98
2018-05-07T07:43:28.613Z,1001.99
2018-05-07T07:44:38.586Z,1002
2018-05-07T07:45:48.413Z,1002
2018-05-07T07:46:58.235Z,1001.96
2018-05-07T07:48:08.825Z,1001.96
2018-05-07T07:49:19.071Z,1002.03
2018-05-07T07:50:29.145Z,1001.99
2018-05-07T07:51:39.299Z,1002
2018-05-07T07:52:49.449Z,1002
2018-05-07T07:53:59.248Z,1001.96
2018-05-07T07:55:09.302Z,1001.99
2018-05-07T07:56:19.728Z,1001.97
2018-05-07T07:57:29.874Z,1001.97
2018-05-07T07:58:40.135Z,1001.97
2018-05-07T07:59:50.220Z,1001.91
2018-05-07T08:01:00.466Z,1001.89
2018-05-07T08:02:10.660Z,1001.86
2018-05-07T08:03:20.465Z,1001.9
2018-05-07T08:04:30.558Z,1001.83
2018-05-07T08:05:40.861Z,1001.85
2018-05-07T08:06:51.075Z,1001.85
2018-05-07T08:08:01.154Z,1001.85
2018-05-07T08:09:11.256Z,1001.83
2018-05-07T08:10:21.148Z,1001.81
2018-05-07T08:11:31.419Z,1001.85
2018-05-07T08:12:41.547Z,1001.8
2018-05-07T08:13:51.624Z,1001.84
2018-05-07T08:15:02.387Z,1001.83
2018-05-07T08:16:12.469Z,1001.81
2018-05-07T08:17:22.557Z,1001.8
2018-05-07T08:18:32.698Z,1001.76
2018-05-07T08:19:42.843Z,1001.76
2018-05-07T08:20:52.919Z,1001.74
2018-05-07T08:22:03.121Z,1001.84
2018-05-07T08:23:13.282Z,1001.8
2018-05-07T08:24:23.646Z,1001.79
2018-05-07T08:25:33.750Z,1001.76
2018-05-07T08:26:44.073Z,1001.8
2018-05-07T08:27:54.507Z,1001.72
2018-05-07T08:29:04.710Z,1001.72
2018-05-07T08:30:14.694Z,1001.72
2018-05-07T08:31:25.382Z,1001.7
2018-05-07T08:32:35.528Z,1001.68
2018-05-07T08:33:45.606Z,1001.66
2018-05-07T08:34:56.201Z,1001.6
2018-05-07T08:36:06.009Z,1001.69
2018-05-07T08:37:16.100Z,1001.66
2018-05-07T08:38:26.356Z,1001.67
2018-05-07T08:39:36.181Z,1001.67
2018-05-07T08:40:46.246Z,1001.67
2018-05-07T08:41:55.797Z,1001.66
2018-05-07T08:43:05.610Z,1001.62
2018-05-07T08:44:15.694Z,1001.58
2018-05-07T08:45:25.541Z,1001.58
2018-05-07T08:46:35.376Z,1001.55
2018-05-07T08:47:45.179Z,1001.54
2018-05-07T08:48:55.254Z,1001.57
2018-05-07T08:50:05.357Z,1001.53
2018-05-07T08:51:14.905Z,1001.57
2018-05-07T08:52:25.009Z,1001.57
2018-05-07T08:53:35.090Z,1001.54
2018-05-07T08:54:45.166Z,1001.53
2018-05-07T08:55:54.722Z,1001.52
2018-05-07T08:57:04.542Z,1001.51
2018-05-07T08:58:14.627Z,1001.45
2018-05-07T08:59:24.707Z,1001.43
2018-05-07T09:00:34.788Z,1001.45
2018-05-07T09:01:44.899Z,1001.46
2018-05-07T09:02:55.150Z,1001.49
2018-05-07T09:04:05.235Z,1001.47
2018-05-07T09:05:15.649Z,1001.47
2018-05-07T09:06:27.214Z,1001.49
2018-05-07T09:07:37.659Z,1001.46
2018-05-07T09:08:49.624Z,1001.44
2018-05-07T09:10:03.641Z,1001.44
2018-05-07T09:11:17.875Z,1001.42
2018-05-07T09:12:27.975Z,1001.42
2018-05-07T09:13:38.136Z,1001.47
2018-05-07T09:14:49.620Z,1001.43
2018-05-07T09:16:02.453Z,1001.45
2018-05-07T09:17:14.337Z,1001.44
2018-05-07T09:18:25.234Z,1001.45
2018-05-07T09:19:35.586Z,1001.44
2018-05-07T09:20:46.777Z,1001.44
2018-05-07T09:21:57.486Z,1001.48
2018-05-07T09:23:08.207Z,1001.43
2018-05-07T09:24:18.874Z,1001.42
2018-05-07T09:25:29.131Z,1001.45
2018-05-07T09:26:39.743Z,1001.38
2018-05-07T09:27:53.890Z,1001.36
2018-05-07T09:29:06.849Z,1001.35
2018-05-07T09:30:20.707Z,1001.33
2018-05-07T09:31:36.122Z,1001.34
2018-05-07T09:32:54.146Z,1001.31
2018-05-07T09:34:10.548Z,1001.31
2018-05-07T09:35:28.431Z,1001.27
2018-05-07T09:36:47.174Z,1001.29
2018-05-07T09:38:04.888Z,1001.28
2018-05-07T09:39:20.364Z,1001.25
2018-05-07T09:40:35.471Z,1001.22
2018-05-07T09:41:51.265Z,1001.24
2018-05-07T09:43:07.013Z,1001.24
2018-05-07T09:44:23.528Z,1001.23
2018-05-07T09:45:38.918Z,1001.21
2018-05-07T09:46:54.533Z,1001.26
2018-05-07T09:48:11.106Z,1001.26
2018-05-07T09:49:28.272Z,1001.21
2018-05-07T09:50:42.337Z,1001.26
2018-05-07T09:52:00.164Z,1001.22
2018-05-07T09:53:16.070Z,1001.14
2018-05-07T09:54:34.365Z,1001.18
2018-05-07T09:55:51.787Z,1001.13
2018-05-07T09:57:06.864Z,1001.1
2018-05-07T09:58:23.627Z,1001.12
2018-05-07T09:59:39.474Z,1001.12
2018-05-07T10:00:56.739Z,1001.16
2018-05-07T10:02:13.748Z,1001.13
2018-05-07T10:03:29.422Z,1001.12
2018-05-07T10:04:44.804Z,1001.09
2018-05-07T10:06:00.833Z,1001.06
2018-05-07T10:07:16.807Z,1001.06
2018-05-07T10:08:32.072Z,1001.1
2018-05-07T10:09:49.067Z,1001.05
2018-05-07T10:11:07.187Z,1001.01
2018-05-07T10:12:24.230Z,1001.03
2018-05-07T10:13:41.322Z,1000.98
2018-05-07T10:14:57.178Z,1000.96
2018-05-07T10:16:13.842Z,1000.98
2018-05-07T10:17:27.294Z,1000.97
2018-05-07T10:18:37.392Z,1001.01
2018-05-07T10:19:47.718Z,1000.98
2018-05-07T10:21:02.517Z,1000.94
2018-05-07T10:22:18.922Z,1000.93
2018-05-07T10:23:32.333Z,1000.93
2018-05-07T10:24:47.534Z,1000.89
2018-05-07T10:26:06.803Z,1000.87
2018-05-07T10:27:21.944Z,1000.81
2018-05-07T10:28:37.107Z,1000.82
2018-05-07T10:29:54.114Z,1000.79
2018-05-07T10:31:13.122Z,1000.78
2018-05-07T10:32:31.458Z,1000.78
2018-05-07T10:33:47.175Z,1000.79
2018-05-07T10:35:01.518Z,1000.79
2018-05-07T10:36:17.671Z,1000.74
2018-05-07T10:37:33.062Z,1000.71
2018-05-07T10:38:47.405Z,1000.68
2018-05-07T10:39:59.508Z,1000.67
2018-05-07T10:41:13.510Z,1000.75
2018-05-07T10:42:26.803Z,1000.68
2018-05-07T10:43:44.500Z,1000.66
2018-05-07T10:45:00.978Z,1000.62
2018-05-07T10:46:17.183Z,1000.62
2018-05-07T10:47:30.445Z,1000.67
2018-05-07T10:48:45.945Z,1000.64
2018-05-07T10:50:00.595Z,1000.6
2018-05-07T10:51:19.533Z,1000.58
2018-05-07T10:52:36.248Z,1000.59
2018-05-07T10:53:51.311Z,1000.55
2018-05-07T10:55:07.208Z,1000.48
2018-05-07T10:56:22.576Z,1000.46
2018-05-07T10:57:36.442Z,1000.41
2018-05-07T10:58:52.473Z,1000.45
2018-05-07T11:00:10.400Z,1000.42
2018-05-07T11:01:25.442Z,1000.39
2018-05-07T11:02:40.524Z,1000.44
2018-05-07T11:03:53.836Z,1000.38
2018-05-07T11:05:11.285Z,1000.39
2018-05-07T11:06:25.860Z,1000.31
2018-05-07T11:07:40.312Z,1000.34
2018-05-07T11:08:51.366Z,1000.32
2018-05-07T11:10:01.647Z,1000.26
2018-05-07T11:11:14.413Z,1000.26
2018-05-07T11:12:24.238Z,1000.27
2018-05-07T11:13:34.865Z,1000.21
2018-05-07T11:14:51.436Z,1000.16
2018-05-07T11:16:06.452Z,1000.17
2018-05-07T11:17:21.634Z,1000.14
2018-05-07T11:18:36.854Z,1000.16
2018-05-07T11:19:49.670Z,1000.12
2018-05-07T11:21:03.934Z,1000.17
2018-05-07T11:22:18.844Z,1000.13
2018-05-07T11:23:28.665Z,1000.12
2018-05-07T11:24:38.776Z,1000.13
2018-05-07T11:25:48.611Z,1000.16
2018-05-07T11:26:58.722Z,1000.13
2018-05-07T11:28:08.597Z,1000.09
2018-05-07T11:29:18.439Z,1000.12
2018-05-07T11:30:28.510Z,1000.09
2018-05-07T11:31:38.600Z,1000.05
2018-05-07T11:32:48.437Z,1000.08
2018-05-07T11:33:58.300Z,1000.06
2018-05-07T11:35:08.390Z,1000.08
2018-05-07T11:36:18.494Z,1000.07
2018-05-07T11:37:28.611Z,1000.09
2018-05-07T11:38:38.442Z,1000.02
2018-05-07T11:39:48.315Z,999.98
2018-05-07T11:40:58.404Z,999.98
2018-05-07T11:42:08.496Z,999.97
2018-05-07T11:43:18.601Z,999.93
2018-05-07T11:44:28.713Z,999.89
2018-05-07T11:45:38.847Z,999.88
2018-05-07T11:46:48.938Z,999.85
2018-05-07T11:47:59.051Z,999.85
2018-05-07T11:49:08.956Z,999.83
2018-05-07T11:50:19.118Z,999.84
2018-05-07T11:51:29.207Z,999.85
2018-05-07T11:52:39.312Z,999.78
2018-05-07T11:53:49.425Z,999.77
2018-05-07T11:54:59.249Z,999.75
2018-05-07T11:56:09.359Z,999.72
2018-05-07T11:57:19.502Z,999.77
2018-05-07T11:58:29.598Z,999.7
2018-05-07T11:59:39.706Z,999.69
2018-05-07T12:00:49.803Z,999.65
2018-05-07T12:01:59.900Z,999.65
2018-05-07T12:03:10.131Z,999.64
2018-05-07T12:04:19.966Z,999.66
2018-05-07T12:05:30.070Z,999.62
2018-05-07T12:06:40.157Z,999.56
2018-05-07T12:07:50.251Z,999.59
2018-05-07T12:09:00.439Z,999.64
2018-05-07T12:10:10.848Z,999.67
2018-05-07T12:11:20.960Z,999.62
2018-05-07T12:12:31.084Z,999.57
2018-05-07T12:13:41.167Z,999.54
2018-05-07T12:22:00.812Z,999.4
2018-05-07T12:23:10.999Z,999.38
2018-05-07T12:24:21.457Z,999.36
2018-05-07T12:25:31.552Z,999.44
2018-05-07T12:26:41.628Z,999.38
2018-05-07T12:27:51.789Z,999.35
2018-05-07T12:29:01.873Z,999.32
2018-05-07T12:30:11.462Z,999.3
2018-05-07T12:31:21.664Z,999.35
2018-05-07T12:32:32.226Z,999.3
2018-05-07T12:33:42.314Z,999.29
2018-05-07T12:34:52.398Z,999.25
2018-05-07T12:36:02.230Z,999.25
2018-05-07T12:37:12.324Z,999.21
2018-05-07T12:38:22.403Z,999.18
2018-05-07T12:39:32.230Z,999.15
2018-05-07T12:40:42.299Z,999.13
2018-05-07T12:41:52.143Z,999.09
2018-05-07T12:43:02.236Z,999.14
2018-05-07T12:44:12.316Z,999.04
2018-05-07T12:45:22.407Z,999.03
2018-05-07T12:46:32.512Z,999.03
2018-05-07T12:47:42.529Z,999
2018-05-07T12:48:52.631Z,999
2018-05-07T12:50:02.701Z,998.97
2018-05-07T12:51:12.813Z,999.06
2018-05-07T12:52:22.710Z,999.05
2018-05-07T12:53:32.696Z,999.06
2018-05-07T12:54:42.808Z,999.01
2018-05-07T12:55:52.626Z,998.98
2018-05-07T12:57:02.721Z,998.94
2018-05-07T12:58:12.824Z,998.96
2018-05-07T12:59:22.938Z,998.98
2018-05-07T13:00:32.780Z,998.97
2018-05-07T13:01:42.865Z,998.94
2018-05-07T13:02:53.015Z,998.96
2018-05-07T13:04:03.108Z,998.93
2018-05-07T13:05:12.945Z,998.9
2018-05-07T13:06:23.071Z,998.87
2018-05-07T13:07:32.103Z,998.84
2018-05-07T13:08:41.979Z,998.83
2018-05-07T13:09:52.090Z,998.87
2018-05-07T13:11:02.188Z,998.84
2018-05-07T13:12:12.300Z,998.87
2018-05-07T13:13:22.146Z,998.82
2018-05-07T13:14:31.968Z,998.78
2018-05-07T13:15:42.069Z,998.69
2018-05-07T13:16:52.264Z,998.73
2018-05-07T13:18:02.076Z,998.75
2018-05-07T13:19:12.182Z,998.73
2018-05-07T13:20:22.055Z,998.68
2018-05-07T13:21:32.153Z,998.62
2018-05-07T13:22:42.239Z,998.67
2018-05-07T13:23:52.354Z,998.64
2018-05-07T13:25:02.465Z,998.63
2018-05-07T13:26:12.283Z,998.59
2018-05-07T13:27:22.435Z,998.63
2018-05-07T13:28:32.534Z,998.62
2018-05-07T13:29:42.613Z,998.6
2018-05-07T13:30:52.453Z,998.56
2018-05-07T13:32:02.299Z,998.55
2018-05-07T13:33:12.388Z,998.5
2018-05-07T13:34:22.715Z,998.56
2018-05-07T13:35:32.841Z,998.48
2018-05-07T13:36:42.673Z,998.48
2018-05-07T13:37:52.666Z,998.45
2018-05-07T13:39:02.739Z,998.46
2018-05-07T13:40:12.571Z,998.45
2018-05-07T13:41:22.663Z,998.41
2018-05-07T13:42:32.767Z,998.44
2018-05-07T13:43:42.643Z,998.37
2018-05-07T13:44:52.741Z,998.33
2018-05-07T13:46:02.592Z,998.23
2018-05-07T13:47:12.412Z,998.29
2018-05-07T13:48:22.533Z,998.28
2018-05-07T13:49:32.641Z,998.24
2018-05-07T13:50:42.466Z,998.32
2018-05-07T13:51:52.582Z,998.3
2018-05-07T13:53:02.688Z,998.26
2018-05-07T13:54:12.765Z,998.26
2018-05-07T13:55:22.628Z,998.29
2018-05-07T13:56:32.456Z,998.26
2018-05-07T13:57:42.280Z,998.24
2018-05-07T13:58:52.119Z,998.25
2018-05-07T14:00:02.265Z,998.24
2018-05-07T14:01:12.370Z,998.25
2018-05-07T14:02:22.487Z,998.22
2018-05-07T14:03:32.307Z,998.19
2018-05-07T14:04:42.399Z,998.2
2018-05-07T14:05:52.223Z,998.12
2018-05-07T14:07:02.048Z,998.11
2018-05-07T14:08:12.140Z,998.12
2018-05-07T14:09:21.999Z,998.16
2018-05-07T14:10:32.094Z,998.15
2018-05-07T14:11:42.199Z,998.18
2018-05-07T14:12:51.824Z,998.18
2018-05-07T14:14:01.928Z,998.16
2018-05-07T14:15:12.028Z,998.12
2018-05-07T14:16:21.863Z,998.15
2018-05-07T14:17:31.943Z,998.15
2018-05-07T14:18:42.125Z,998.1
2018-05-07T14:19:52.216Z,998.07
2018-05-07T14:21:02.043Z,998.04
2018-05-07T14:22:12.129Z,998.09
2018-05-07T14:23:22.202Z,998.04
2018-05-07T14:24:32.363Z,998.04
2018-05-07T14:25:42.500Z,998.03
2018-05-07T14:26:52.025Z,997.98
2018-05-07T14:28:02.144Z,997.99
2018-05-07T14:29:12.238Z,997.99
2018-05-07T14:30:22.375Z,997.95
2018-05-07T14:31:32.472Z,997.94
2018-05-07T14:32:42.569Z,997.89
2018-05-07T14:33:52.684Z,997.86
2018-05-07T14:35:02.775Z,997.89
2018-05-07T14:36:12.974Z,997.83
2018-05-07T14:37:23.071Z,997.8
2018-05-07T14:38:32.899Z,997.79
2018-05-07T14:39:43.026Z,997.74
2018-05-07T14:40:52.863Z,997.75
2018-05-07T14:42:03.078Z,997.74
2018-05-07T14:43:13.213Z,997.75
2018-05-07T14:44:24.860Z,997.79
2018-05-07T14:45:37.170Z,997.73
2018-05-07T14:46:49.569Z,997.69
2018-05-07T14:48:02.588Z,997.71
2018-05-07T14:49:14.176Z,997.68
2018-05-07T14:50:26.583Z,997.7
2018-05-07T14:51:38.582Z,997.65
2018-05-07T14:52:50.685Z,997.66
2018-05-07T14:54:01.724Z,997.67
2018-05-07T14:55:11.860Z,997.63
2018-05-07T14:56:21.983Z,997.62
2018-05-07T14:57:32.138Z,997.61
2018-05-07T14:58:42.030Z,997.61
2018-05-07T14:59:52.112Z,997.63
2018-05-07T15:01:02.261Z,997.6
2018-05-07T15:02:12.394Z,997.56